Terminal Aerodrome Forecast
Issued by NWS

Home | Current Version | Previous Version | Text Only | Print | Product List | Glossary On
Versions: 1 2 3 4 5 6 7 8 9 10 11 12 13 14
000
FTUS42 TJSJ 230520
TAFISX
TAF
TISX 230520Z 2306/2406 36005KT P6SM FEW030 BKN070
     FM231400 12008KT P6SM FEW030 BKN060
     FM232200 VRB05KT P6SM VCSH SCT030 BKN060=

USA.gov is the U.S. government's official web portal to all federal, state and local government web resources and services.